sensor_id;sensor_type;location;lat;lon;timestamp;P1;durP1;ratioP1;P2;durP2;ratioP2
48006;SDS011;33771;48.180;11.400;2023-10-19T00:01:57;27.53;;;21.43;;
48006;SDS011;33771;48.180;11.400;2023-10-19T00:04:26;29.73;;;21.90;;
48006;SDS011;33771;48.180;11.400;2023-10-19T00:06:57;28.47;;;21.53;;
48006;SDS011;33771;48.180;11.400;2023-10-19T00:09:23;31.77;;;23.13;;
48006;SDS011;33771;48.180;11.400;2023-10-19T00:11:48;32.97;;;22.67;;
48006;SDS011;33771;48.180;11.400;2023-10-19T00:14:16;30.33;;;22.33;;
48006;SDS011;33771;48.180;11.400;2023-10-19T00:16:43;29.97;;;22.50;;
48006;SDS011;33771;48.180;11.400;2023-10-19T00:19:17;30.30;;;22.35;;
48006;SDS011;33771;48.180;11.400;2023-10-19T00:21:45;31.57;;;23.43;;
48006;SDS011;33771;48.180;11.400;2023-10-19T00:24:20;31.25;;;23.90;;
48006;SDS011;33771;48.180;11.400;2023-10-19T00:26:48;33.67;;;23.47;;
48006;SDS011;33771;48.180;11.400;2023-10-19T00:29:17;33.87;;;24.73;;
48006;SDS011;33771;48.180;11.400;2023-10-19T00:31:58;34.93;;;24.77;;
48006;SDS011;33771;48.180;11.400;2023-10-19T00:34:25;35.30;;;24.33;;
48006;SDS011;33771;48.180;11.400;2023-10-19T00:36:53;35.27;;;25.77;;
48006;SDS011;33771;48.180;11.400;2023-10-19T00:39:20;34.80;;;26.30;;
48006;SDS011;33771;48.180;11.400;2023-10-19T00:41:47;33.97;;;25.97;;
48006;SDS011;33771;48.180;11.400;2023-10-19T00:44:13;36.17;;;26.47;;
48006;SDS011;33771;48.180;11.400;2023-10-19T00:46:53;35.03;;;25.80;;
48006;SDS011;33771;48.180;11.400;2023-10-19T00:49:38;39.30;;;25.83;;
48006;SDS011;33771;48.180;11.400;2023-10-19T00:52:04;31.77;;;24.00;;
48006;SDS011;33771;48.180;11.400;2023-10-19T00:54:52;28.73;;;23.00;;
48006;SDS011;33771;48.180;11.400;2023-10-19T00:57:23;32.87;;;24.33;;
48006;SDS011;33771;48.180;11.400;2023-10-19T01:00:03;38.00;;;25.87;;
48006;SDS011;33771;48.180;11.400;2023-10-19T01:05:11;34.00;;;24.03;;
48006;SDS011;33771;48.180;11.400;2023-10-19T01:07:40;35.43;;;24.60;;
48006;SDS011;33771;48.180;11.400;2023-10-19T01:10:06;34.87;;;24.90;;
48006;SDS011;33771;48.180;11.400;2023-10-19T01:12:46;35.60;;;25.07;;
48006;SDS011;33771;48.180;11.400;2023-10-19T01:17:49;32.73;;;24.13;;
48006;SDS011;33771;48.180;11.400;2023-10-19T01:20:22;35.27;;;24.40;;
48006;SDS011;33771;48.180;11.400;2023-10-19T01:28:24;36.27;;;26.00;;
48006;SDS011;33771;48.180;11.400;2023-10-19T01:31:06;33.73;;;24.73;;
48006;SDS011;33771;48.180;11.400;2023-10-19T01:33:32;32.93;;;23.87;;
48006;SDS011;33771;48.180;11.400;2023-10-19T01:36:00;33.17;;;24.30;;
48006;SDS011;33771;48.180;11.400;2023-10-19T01:38:56;32.42;;;22.85;;
48006;SDS011;33771;48.180;11.400;2023-10-19T01:41:26;32.73;;;25.07;;
48006;SDS011;33771;48.180;11.400;2023-10-19T01:43:53;32.30;;;23.50;;
48006;SDS011;33771;48.180;11.400;2023-10-19T01:46:19;31.07;;;23.43;;
48006;SDS011;33771;48.180;11.400;2023-10-19T01:48:59;32.80;;;24.37;;
48006;SDS011;33771;48.180;11.400;2023-10-19T01:51:27;33.73;;;24.83;;
48006;SDS011;33771;48.180;11.400;2023-10-19T01:53:54;37.20;;;25.20;;
48006;SDS011;33771;48.180;11.400;2023-10-19T01:56:20;35.43;;;26.07;;
48006;SDS011;33771;48.180;11.400;2023-10-19T01:58:47;31.83;;;24.80;;
48006;SDS011;33771;48.180;11.400;2023-10-19T02:01:13;38.50;;;25.17;;
48006;SDS011;33771;48.180;11.400;2023-10-19T02:03:45;34.53;;;24.80;;
48006;SDS011;33771;48.180;11.400;2023-10-19T02:06:13;35.30;;;24.30;;
48006;SDS011;33771;48.180;11.400;2023-10-19T02:08:46;33.07;;;25.33;;
48006;SDS011;33771;48.180;11.400;2023-10-19T02:11:23;33.27;;;23.93;;
48006;SDS011;33771;48.180;11.400;2023-10-19T02:13:50;36.63;;;25.93;;
48006;SDS011;33771;48.180;11.400;2023-10-19T02:16:17;32.03;;;23.73;;
48006;SDS011;33771;48.180;11.400;2023-10-19T02:18:47;33.93;;;24.60;;
48006;SDS011;33771;48.180;11.400;2023-10-19T02:21:15;31.27;;;24.17;;
48006;SDS011;33771;48.180;11.400;2023-10-19T02:23:46;32.23;;;23.63;;
48006;SDS011;33771;48.180;11.400;2023-10-19T02:26:15;31.57;;;23.53;;
48006;SDS011;33771;48.180;11.400;2023-10-19T02:28:41;36.23;;;25.77;;
48006;SDS011;33771;48.180;11.400;2023-10-19T02:31:09;34.63;;;24.90;;
48006;SDS011;33771;48.180;11.400;2023-10-19T02:33:44;31.63;;;23.80;;
48006;SDS011;33771;48.180;11.400;2023-10-19T02:36:11;31.90;;;23.57;;
48006;SDS011;33771;48.180;11.400;2023-10-19T02:38:41;34.53;;;24.13;;
48006;SDS011;33771;48.180;11.400;2023-10-19T02:43:42;31.93;;;23.97;;
48006;SDS011;33771;48.180;11.400;2023-10-19T02:46:15;33.50;;;23.70;;
48006;SDS011;33771;48.180;11.400;2023-10-19T02:48:42;32.13;;;23.83;;
48006;SDS011;33771;48.180;11.400;2023-10-19T02:51:14;34.90;;;23.90;;
48006;SDS011;33771;48.180;11.400;2023-10-19T02:53:40;30.73;;;23.47;;
48006;SDS011;33771;48.180;11.400;2023-10-19T02:56:13;31.50;;;23.93;;
48006;SDS011;33771;48.180;11.400;2023-10-19T02:58:48;33.40;;;22.70;;
48006;SDS011;33771;48.180;11.400;2023-10-19T03:03:44;31.53;;;23.10;;
48006;SDS011;33771;48.180;11.400;2023-10-19T03:06:11;31.80;;;22.90;;
48006;SDS011;33771;48.180;11.400;2023-10-19T03:08:36;28.80;;;22.37;;
48006;SDS011;33771;48.180;11.400;2023-10-19T03:11:03;28.13;;;22.40;;
48006;SDS011;33771;48.180;11.400;2023-10-19T03:13:29;28.67;;;22.23;;
48006;SDS011;33771;48.180;11.400;2023-10-19T03:15:54;27.70;;;21.10;;
48006;SDS011;33771;48.180;11.400;2023-10-19T03:18:20;31.40;;;22.47;;
48006;SDS011;33771;48.180;11.400;2023-10-19T03:20:45;27.70;;;21.33;;
48006;SDS011;33771;48.180;11.400;2023-10-19T03:23:11;31.77;;;23.23;;
48006;SDS011;33771;48.180;11.400;2023-10-19T03:25:39;27.37;;;20.40;;
48006;SDS011;33771;48.180;11.400;2023-10-19T03:28:23;27.17;;;20.90;;
48006;SDS011;33771;48.180;11.400;2023-10-19T03:30:51;27.77;;;20.90;;
48006;SDS011;33771;48.180;11.400;2023-10-19T03:33:16;28.43;;;21.00;;
48006;SDS011;33771;48.180;11.400;2023-10-19T03:35:43;29.47;;;21.30;;
48006;SDS011;33771;48.180;11.400;2023-10-19T03:38:09;26.83;;;21.10;;
48006;SDS011;33771;48.180;11.400;2023-10-19T03:40:42;28.67;;;21.27;;
48006;SDS011;33771;48.180;11.400;2023-10-19T03:43:16;29.27;;;20.98;;
48006;SDS011;33771;48.180;11.400;2023-10-19T03:45:43;27.27;;;20.90;;
48006;SDS011;33771;48.180;11.400;2023-10-19T03:48:20;26.67;;;20.70;;
48006;SDS011;33771;48.180;11.400;2023-10-19T03:50:51;32.23;;;20.27;;
48006;SDS011;33771;48.180;11.400;2023-10-19T03:53:18;29.50;;;21.10;;
48006;SDS011;33771;48.180;11.400;2023-10-19T03:55:46;29.60;;;21.07;;
48006;SDS011;33771;48.180;11.400;2023-10-19T03:58:12;29.17;;;21.23;;
48006;SDS011;33771;48.180;11.400;2023-10-19T04:00:38;31.07;;;22.43;;
48006;SDS011;33771;48.180;11.400;2023-10-19T04:03:03;26.87;;;20.73;;
48006;SDS011;33771;48.180;11.400;2023-10-19T04:05:29;25.70;;;19.00;;
48006;SDS011;33771;48.180;11.400;2023-10-19T04:07:56;24.97;;;20.03;;
48006;SDS011;33771;48.180;11.400;2023-10-19T04:10:24;24.53;;;19.63;;
48006;SDS011;33771;48.180;11.400;2023-10-19T04:12:59;24.98;;;18.92;;
48006;SDS011;33771;48.180;11.400;2023-10-19T04:15:25;23.57;;;18.40;;
48006;SDS011;33771;48.180;11.400;2023-10-19T04:17:51;26.00;;;18.63;;
48006;SDS011;33771;48.180;11.400;2023-10-19T04:20:20;25.90;;;19.70;;
48006;SDS011;33771;48.180;11.400;2023-10-19T04:22:46;23.27;;;18.70;;
48006;SDS011;33771;48.180;11.400;2023-10-19T04:25:13;22.33;;;18.10;;
48006;SDS011;33771;48.180;11.400;2023-10-19T04:27:41;23.17;;;18.83;;
48006;SDS011;33771;48.180;11.400;2023-10-19T04:30:10;27.27;;;18.63;;
48006;SDS011;33771;48.180;11.400;2023-10-19T04:32:47;24.37;;;18.87;;
48006;SDS011;33771;48.180;11.400;2023-10-19T04:35:13;21.13;;;18.03;;
48006;SDS011;33771;48.180;11.400;2023-10-19T04:37:46;20.43;;;16.77;;
48006;SDS011;33771;48.180;11.400;2023-10-19T04:40:18;22.00;;;16.53;;
48006;SDS011;33771;48.180;11.400;2023-10-19T04:42:45;24.37;;;19.30;;
48006;SDS011;33771;48.180;11.400;2023-10-19T04:45:11;24.20;;;19.00;;
48006;SDS011;33771;48.180;11.400;2023-10-19T04:47:38;23.27;;;18.93;;
48006;SDS011;33771;48.180;11.400;2023-10-19T04:50:04;24.13;;;19.43;;
48006;SDS011;33771;48.180;11.400;2023-10-19T04:52:31;24.23;;;18.73;;
48006;SDS011;33771;48.180;11.400;2023-10-19T04:54:57;25.30;;;18.77;;
48006;SDS011;33771;48.180;11.400;2023-10-19T04:57:23;22.87;;;18.30;;
48006;SDS011;33771;48.180;11.400;2023-10-19T04:59:49;24.60;;;19.30;;
48006;SDS011;33771;48.180;11.400;2023-10-19T05:02:15;22.77;;;17.97;;
48006;SDS011;33771;48.180;11.400;2023-10-19T05:04:40;26.20;;;18.73;;
48006;SDS011;33771;48.180;11.400;2023-10-19T05:07:06;24.33;;;18.33;;
48006;SDS011;33771;48.180;11.400;2023-10-19T05:09:36;22.20;;;18.50;;
48006;SDS011;33771;48.180;11.400;2023-10-19T05:12:04;21.90;;;17.47;;
48006;SDS011;33771;48.180;11.400;2023-10-19T05:14:34;26.53;;;21.67;;
48006;SDS011;33771;48.180;11.400;2023-10-19T05:17:03;23.90;;;17.53;;
48006;SDS011;33771;48.180;11.400;2023-10-19T05:19:32;22.57;;;18.20;;
48006;SDS011;33771;48.180;11.400;2023-10-19T05:22:01;21.73;;;17.00;;
48006;SDS011;33771;48.180;11.400;2023-10-19T05:24:29;24.43;;;19.00;;
48006;SDS011;33771;48.180;11.400;2023-10-19T05:26:55;24.23;;;17.80;;
48006;SDS011;33771;48.180;11.400;2023-10-19T05:29:21;20.47;;;16.37;;
48006;SDS011;33771;48.180;11.400;2023-10-19T05:31:47;26.33;;;21.10;;
48006;SDS011;33771;48.180;11.400;2023-10-19T05:34:12;23.37;;;18.93;;
48006;SDS011;33771;48.180;11.400;2023-10-19T05:36:38;25.53;;;19.60;;
48006;SDS011;33771;48.180;11.400;2023-10-19T05:39:10;24.57;;;18.23;;
48006;SDS011;33771;48.180;11.400;2023-10-19T05:41:35;21.03;;;17.53;;
48006;SDS011;33771;48.180;11.400;2023-10-19T05:44:02;24.63;;;18.50;;
48006;SDS011;33771;48.180;11.400;2023-10-19T05:46:28;20.27;;;17.23;;
48006;SDS011;33771;48.180;11.400;2023-10-19T05:48:54;24.63;;;17.67;;
48006;SDS011;33771;48.180;11.400;2023-10-19T05:51:21;23.57;;;16.93;;
48006;SDS011;33771;48.180;11.400;2023-10-19T05:53:47;21.43;;;18.33;;
48006;SDS011;33771;48.180;11.400;2023-10-19T05:56:13;21.53;;;17.37;;
48006;SDS011;33771;48.180;11.400;2023-10-19T05:58:41;22.60;;;17.90;;
48006;SDS011;33771;48.180;11.400;2023-10-19T06:01:07;24.17;;;18.53;;
48006;SDS011;33771;48.180;11.400;2023-10-19T06:03:32;22.97;;;18.97;;
48006;SDS011;33771;48.180;11.400;2023-10-19T06:05:58;24.47;;;17.93;;
48006;SDS011;33771;48.180;11.400;2023-10-19T06:08:23;21.00;;;17.00;;
48006;SDS011;33771;48.180;11.400;2023-10-19T06:10:52;20.77;;;16.83;;
48006;SDS011;33771;48.180;11.400;2023-10-19T06:13:18;19.90;;;16.73;;
48006;SDS011;33771;48.180;11.400;2023-10-19T06:15:44;22.67;;;17.00;;
48006;SDS011;33771;48.180;11.400;2023-10-19T06:18:09;21.00;;;16.63;;
48006;SDS011;33771;48.180;11.400;2023-10-19T06:20:35;23.23;;;17.07;;
48006;SDS011;33771;48.180;11.400;2023-10-19T06:23:01;25.27;;;19.73;;
48006;SDS011;33771;48.180;11.400;2023-10-19T06:25:31;25.47;;;21.50;;
48006;SDS011;33771;48.180;11.400;2023-10-19T06:27:57;24.37;;;18.27;;
48006;SDS011;33771;48.180;11.400;2023-10-19T06:30:24;21.33;;;15.67;;
48006;SDS011;33771;48.180;11.400;2023-10-19T06:32:52;19.50;;;15.67;;
48006;SDS011;33771;48.180;11.400;2023-10-19T06:35:20;19.33;;;15.73;;
48006;SDS011;33771;48.180;11.400;2023-10-19T06:37:46;19.77;;;16.37;;
48006;SDS011;33771;48.180;11.400;2023-10-19T06:40:13;22.20;;;16.87;;
48006;SDS011;33771;48.180;11.400;2023-10-19T06:42:40;21.37;;;15.87;;
48006;SDS011;33771;48.180;11.400;2023-10-19T06:45:07;20.00;;;16.40;;
48006;SDS011;33771;48.180;11.400;2023-10-19T06:47:33;20.53;;;15.73;;
48006;SDS011;33771;48.180;11.400;2023-10-19T06:50:06;20.03;;;15.90;;
48006;SDS011;33771;48.180;11.400;2023-10-19T06:52:33;20.43;;;16.83;;
48006;SDS011;33771;48.180;11.400;2023-10-19T06:55:01;21.77;;;16.70;;
48006;SDS011;33771;48.180;11.400;2023-10-19T06:57:28;18.43;;;15.60;;
48006;SDS011;33771;48.180;11.400;2023-10-19T06:59:53;21.43;;;17.10;;
48006;SDS011;33771;48.180;11.400;2023-10-19T07:02:19;22.50;;;16.70;;
48006;SDS011;33771;48.180;11.400;2023-10-19T07:04:45;17.90;;;15.23;;
48006;SDS011;33771;48.180;11.400;2023-10-19T07:07:12;19.70;;;15.20;;
48006;SDS011;33771;48.180;11.400;2023-10-19T07:09:39;19.50;;;15.20;;
48006;SDS011;33771;48.180;11.400;2023-10-19T07:12:04;21.20;;;16.33;;
48006;SDS011;33771;48.180;11.400;2023-10-19T07:14:32;23.07;;;16.37;;
48006;SDS011;33771;48.180;11.400;2023-10-19T07:16:59;19.77;;;14.50;;
48006;SDS011;33771;48.180;11.400;2023-10-19T07:19:25;21.60;;;15.37;;
48006;SDS011;33771;48.180;11.400;2023-10-19T07:21:50;17.20;;;14.13;;
48006;SDS011;33771;48.180;11.400;2023-10-19T07:24:22;16.87;;;13.90;;
48006;SDS011;33771;48.180;11.400;2023-10-19T07:26:49;18.00;;;13.47;;
48006;SDS011;33771;48.180;11.400;2023-10-19T07:29:19;14.77;;;11.97;;
48006;SDS011;33771;48.180;11.400;2023-10-19T07:31:45;17.03;;;13.40;;
48006;SDS011;33771;48.180;11.400;2023-10-19T07:34:11;18.47;;;13.80;;
48006;SDS011;33771;48.180;11.400;2023-10-19T07:36:40;19.83;;;13.60;;
48006;SDS011;33771;48.180;11.400;2023-10-19T07:39:07;17.20;;;14.37;;
48006;SDS011;33771;48.180;11.400;2023-10-19T07:41:39;17.20;;;13.47;;
48006;SDS011;33771;48.180;11.400;2023-10-19T07:44:07;17.70;;;14.35;;
48006;SDS011;33771;48.180;11.400;2023-10-19T07:46:33;16.83;;;12.90;;
48006;SDS011;33771;48.180;11.400;2023-10-19T07:48:58;16.23;;;12.17;;
48006;SDS011;33771;48.180;11.400;2023-10-19T07:51:25;16.90;;;13.17;;
48006;SDS011;33771;48.180;11.400;2023-10-19T07:53:51;15.32;;;13.20;;
48006;SDS011;33771;48.180;11.400;2023-10-19T07:56:17;16.55;;;11.88;;
48006;SDS011;33771;48.180;11.400;2023-10-19T07:58:42;16.65;;;12.43;;
48006;SDS011;33771;48.180;11.400;2023-10-19T08:01:08;19.35;;;12.70;;
48006;SDS011;33771;48.180;11.400;2023-10-19T08:03:34;16.48;;;11.90;;
48006;SDS011;33771;48.180;11.400;2023-10-19T08:06:00;13.30;;;10.82;;
48006;SDS011;33771;48.180;11.400;2023-10-19T08:08:25;16.35;;;11.27;;
48006;SDS011;33771;48.180;11.400;2023-10-19T08:10:58;16.80;;;11.43;;
48006;SDS011;33771;48.180;11.400;2023-10-19T08:13:24;14.40;;;11.23;;
48006;SDS011;33771;48.180;11.400;2023-10-19T08:15:51;11.18;;;9.20;;
48006;SDS011;33771;48.180;11.400;2023-10-19T08:18:16;15.00;;;9.55;;
48006;SDS011;33771;48.180;11.400;2023-10-19T08:20:43;12.02;;;9.10;;
48006;SDS011;33771;48.180;11.400;2023-10-19T08:23:14;11.68;;;9.07;;
48006;SDS011;33771;48.180;11.400;2023-10-19T08:25:41;12.05;;;8.20;;
48006;SDS011;33771;48.180;11.400;2023-10-19T08:28:09;8.63;;;7.70;;
48006;SDS011;33771;48.180;11.400;2023-10-19T08:30:36;10.68;;;7.28;;
48006;SDS011;33771;48.180;11.400;2023-10-19T08:33:02;10.10;;;7.13;;
48006;SDS011;33771;48.180;11.400;2023-10-19T08:35:28;16.17;;;7.43;;
48006;SDS011;33771;48.180;11.400;2023-10-19T08:37:56;10.05;;;7.22;;
48006;SDS011;33771;48.180;11.400;2023-10-19T08:40:22;10.43;;;8.40;;
48006;SDS011;33771;48.180;11.400;2023-10-19T08:42:51;11.93;;;8.38;;
48006;SDS011;33771;48.180;11.400;2023-10-19T08:45:18;10.20;;;7.72;;
48006;SDS011;33771;48.180;11.400;2023-10-19T08:47:56;12.32;;;7.88;;
48006;SDS011;33771;48.180;11.400;2023-10-19T08:50:23;10.02;;;8.05;;
48006;SDS011;33771;48.180;11.400;2023-10-19T08:52:53;12.00;;;7.28;;
48006;SDS011;33771;48.180;11.400;2023-10-19T08:55:19;11.57;;;7.22;;
48006;SDS011;33771;48.180;11.400;2023-10-19T08:57:46;9.20;;;7.03;;
48006;SDS011;33771;48.180;11.400;2023-10-19T09:00:14;10.90;;;7.45;;
48006;SDS011;33771;48.180;11.400;2023-10-19T09:02:43;13.50;;;7.82;;
48006;SDS011;33771;48.180;11.400;2023-10-19T09:05:09;9.85;;;7.72;;
48006;SDS011;33771;48.180;11.400;2023-10-19T09:07:44;10.70;;;7.30;;
48006;SDS011;33771;48.180;11.400;2023-10-19T09:10:18;10.57;;;7.18;;
48006;SDS011;33771;48.180;11.400;2023-10-19T09:12:44;11.20;;;7.13;;
48006;SDS011;33771;48.180;11.400;2023-10-19T09:15:21;10.82;;;7.15;;
48006;SDS011;33771;48.180;11.400;2023-10-19T09:17:51;9.07;;;7.57;;
48006;SDS011;33771;48.180;11.400;2023-10-19T09:20:20;12.75;;;6.97;;
48006;SDS011;33771;48.180;11.400;2023-10-19T09:22:52;13.07;;;7.68;;
48006;SDS011;33771;48.180;11.400;2023-10-19T09:25:23;10.95;;;7.10;;
48006;SDS011;33771;48.180;11.400;2023-10-19T09:27:49;10.27;;;7.55;;
48006;SDS011;33771;48.180;11.400;2023-10-19T09:30:17;10.50;;;7.40;;
48006;SDS011;33771;48.180;11.400;2023-10-19T09:32:46;9.32;;;7.10;;
48006;SDS011;33771;48.180;11.400;2023-10-19T09:35:13;9.52;;;7.28;;
48006;SDS011;33771;48.180;11.400;2023-10-19T09:37:41;12.95;;;7.32;;
48006;SDS011;33771;48.180;11.400;2023-10-19T09:40:08;11.70;;;6.40;;
48006;SDS011;33771;48.180;11.400;2023-10-19T09:42:38;6.85;;;6.07;;
48006;SDS011;33771;48.180;11.400;2023-10-19T09:45:11;9.00;;;5.80;;
48006;SDS011;33771;48.180;11.400;2023-10-19T09:47:38;10.68;;;6.32;;
48006;SDS011;33771;48.180;11.400;2023-10-19T09:50:06;9.32;;;5.95;;
48006;SDS011;33771;48.180;11.400;2023-10-19T09:52:32;13.88;;;6.07;;
48006;SDS011;33771;48.180;11.400;2023-10-19T09:55:00;8.15;;;5.60;;
48006;SDS011;33771;48.180;11.400;2023-10-19T09:57:37;11.23;;;6.55;;
48006;SDS011;33771;48.180;11.400;2023-10-19T10:00:12;7.80;;;6.00;;
48006;SDS011;33771;48.180;11.400;2023-10-19T10:02:38;8.60;;;5.60;;
48006;SDS011;33771;48.180;11.400;2023-10-19T10:13:47;6.95;;;5.60;;
48006;SDS011;33771;48.180;11.400;2023-10-19T10:16:35;9.98;;;5.45;;
48006;SDS011;33771;48.180;11.400;2023-10-19T10:19:02;8.73;;;5.53;;
48006;SDS011;33771;48.180;11.400;2023-10-19T10:21:29;11.65;;;6.57;;
48006;SDS011;33771;48.180;11.400;2023-10-19T10:23:59;9.35;;;5.95;;
48006;SDS011;33771;48.180;11.400;2023-10-19T10:26:29;8.10;;;6.00;;
48006;SDS011;33771;48.180;11.400;2023-10-19T10:29:13;8.98;;;5.38;;
48006;SDS011;33771;48.180;11.400;2023-10-19T10:31:45;12.25;;;5.45;;
48006;SDS011;33771;48.180;11.400;2023-10-19T10:37:05;8.27;;;5.50;;
48006;SDS011;33771;48.180;11.400;2023-10-19T10:39:33;8.10;;;5.40;;
48006;SDS011;33771;48.180;11.400;2023-10-19T10:42:03;9.68;;;5.30;;
48006;SDS011;33771;48.180;11.400;2023-10-19T10:47:09;9.85;;;6.68;;
48006;SDS011;33771;48.180;11.400;2023-10-19T10:49:49;6.38;;;4.95;;
48006;SDS011;33771;48.180;11.400;2023-10-19T10:52:32;8.98;;;5.45;;
48006;SDS011;33771;48.180;11.400;2023-10-19T10:57:37;9.15;;;5.57;;
48006;SDS011;33771;48.180;11.400;2023-10-19T11:00:08;10.80;;;5.63;;
48006;SDS011;33771;48.180;11.400;2023-10-19T11:02:39;8.55;;;6.18;;
48006;SDS011;33771;48.180;11.400;2023-10-19T11:05:08;10.40;;;6.03;;
48006;SDS011;33771;48.180;11.400;2023-10-19T11:07:37;8.15;;;5.97;;
48006;SDS011;33771;48.180;11.400;2023-10-19T11:10:07;13.40;;;6.85;;
48006;SDS011;33771;48.180;11.400;2023-10-19T11:12:35;9.60;;;4.95;;
48006;SDS011;33771;48.180;11.400;2023-10-19T11:15:00;8.23;;;5.13;;
48006;SDS011;33771;48.180;11.400;2023-10-19T11:17:34;8.48;;;5.10;;
48006;SDS011;33771;48.180;11.400;2023-10-19T11:20:08;11.73;;;6.97;;
48006;SDS011;33771;48.180;11.400;2023-10-19T11:22:44;10.65;;;5.55;;
48006;SDS011;33771;48.180;11.400;2023-10-19T11:25:21;7.03;;;4.90;;
48006;SDS011;33771;48.180;11.400;2023-10-19T11:27:48;10.15;;;5.30;;
48006;SDS011;33771;48.180;11.400;2023-10-19T11:30:22;9.82;;;5.07;;
48006;SDS011;33771;48.180;11.400;2023-10-19T11:32:52;13.07;;;8.63;;
48006;SDS011;33771;48.180;11.400;2023-10-19T11:35:21;17.75;;;9.75;;
48006;SDS011;33771;48.180;11.400;2023-10-19T11:37:51;9.75;;;6.80;;
48006;SDS011;33771;48.180;11.400;2023-10-19T11:40:18;7.90;;;5.60;;
48006;SDS011;33771;48.180;11.400;2023-10-19T11:42:48;14.15;;;7.22;;
48006;SDS011;33771;48.180;11.400;2023-10-19T11:45:17;10.00;;;6.65;;
48006;SDS011;33771;48.180;11.400;2023-10-19T11:47:43;12.32;;;7.05;;
48006;SDS011;33771;48.180;11.400;2023-10-19T11:50:10;14.50;;;7.82;;
48006;SDS011;33771;48.180;11.400;2023-10-19T11:52:41;13.90;;;9.50;;
48006;SDS011;33771;48.180;11.400;2023-10-19T11:55:07;12.63;;;7.35;;
48006;SDS011;33771;48.180;11.400;2023-10-19T11:57:33;11.63;;;7.15;;
48006;SDS011;33771;48.180;11.400;2023-10-19T12:00:00;12.20;;;7.22;;
48006;SDS011;33771;48.180;11.400;2023-10-19T12:02:33;12.38;;;6.70;;
48006;SDS011;33771;48.180;11.400;2023-10-19T12:05:01;9.95;;;5.82;;
48006;SDS011;33771;48.180;11.400;2023-10-19T12:07:27;14.98;;;7.20;;
48006;SDS011;33771;48.180;11.400;2023-10-19T12:09:53;10.77;;;6.22;;
48006;SDS011;33771;48.180;11.400;2023-10-19T12:12:18;10.27;;;5.93;;
48006;SDS011;33771;48.180;11.400;2023-10-19T12:14:44;10.80;;;5.90;;
48006;SDS011;33771;48.180;11.400;2023-10-19T12:17:11;11.45;;;5.90;;
48006;SDS011;33771;48.180;11.400;2023-10-19T12:19:36;12.13;;;6.10;;
48006;SDS011;33771;48.180;11.400;2023-10-19T12:22:02;10.15;;;5.10;;
48006;SDS011;33771;48.180;11.400;2023-10-19T12:24:27;7.97;;;4.32;;
48006;SDS011;33771;48.180;11.400;2023-10-19T12:26:54;25.70;;;13.75;;
48006;SDS011;33771;48.180;11.400;2023-10-19T12:29:20;16.90;;;9.32;;
48006;SDS011;33771;48.180;11.400;2023-10-19T12:31:46;13.85;;;6.50;;
48006;SDS011;33771;48.180;11.400;2023-10-19T12:34:12;7.70;;;5.00;;
48006;SDS011;33771;48.180;11.400;2023-10-19T12:36:38;12.15;;;5.85;;
48006;SDS011;33771;48.180;11.400;2023-10-19T12:39:06;8.23;;;5.00;;
48006;SDS011;33771;48.180;11.400;2023-10-19T12:41:32;8.40;;;4.43;;
48006;SDS011;33771;48.180;11.400;2023-10-19T12:43:58;5.10;;;3.72;;
48006;SDS011;33771;48.180;11.400;2023-10-19T12:46:27;7.97;;;4.05;;
48006;SDS011;33771;48.180;11.400;2023-10-19T12:48:54;6.38;;;3.88;;
48006;SDS011;33771;48.180;11.400;2023-10-19T12:51:21;7.50;;;4.00;;
48006;SDS011;33771;48.180;11.400;2023-10-19T12:53:52;6.65;;;4.13;;
48006;SDS011;33771;48.180;11.400;2023-10-19T12:56:19;6.93;;;4.22;;
48006;SDS011;33771;48.180;11.400;2023-10-19T12:58:45;9.07;;;4.60;;
48006;SDS011;33771;48.180;11.400;2023-10-19T13:01:13;11.63;;;5.05;;
48006;SDS011;33771;48.180;11.400;2023-10-19T13:03:42;10.30;;;5.47;;
48006;SDS011;33771;48.180;11.400;2023-10-19T13:06:10;7.45;;;4.72;;
48006;SDS011;33771;48.180;11.400;2023-10-19T13:08:37;10.30;;;4.55;;
48006;SDS011;33771;48.180;11.400;2023-10-19T13:11:05;6.53;;;4.03;;
48006;SDS011;33771;48.180;11.400;2023-10-19T13:13:31;9.35;;;4.20;;
48006;SDS011;33771;48.180;11.400;2023-10-19T13:15:57;7.00;;;3.60;;
48006;SDS011;33771;48.180;11.400;2023-10-19T13:18:23;7.45;;;3.78;;
48006;SDS011;33771;48.180;11.400;2023-10-19T13:20:55;5.85;;;3.85;;
48006;SDS011;33771;48.180;11.400;2023-10-19T13:23:21;6.80;;;4.15;;
48006;SDS011;33771;48.180;11.400;2023-10-19T13:25:47;9.30;;;3.63;;
48006;SDS011;33771;48.180;11.400;2023-10-19T13:28:22;8.55;;;4.38;;
48006;SDS011;33771;48.180;11.400;2023-10-19T13:30:52;6.97;;;4.47;;
48006;SDS011;33771;48.180;11.400;2023-10-19T13:33:19;9.18;;;4.80;;
48006;SDS011;33771;48.180;11.400;2023-10-19T13:35:46;9.52;;;4.88;;
48006;SDS011;33771;48.180;11.400;2023-10-19T13:38:16;10.48;;;4.65;;
48006;SDS011;33771;48.180;11.400;2023-10-19T13:40:43;11.35;;;6.63;;
48006;SDS011;33771;48.180;11.400;2023-10-19T13:43:10;12.13;;;7.10;;
48006;SDS011;33771;48.180;11.400;2023-10-19T13:45:39;10.10;;;6.75;;
48006;SDS011;33771;48.180;11.400;2023-10-19T13:48:06;11.00;;;6.55;;
48006;SDS011;33771;48.180;11.400;2023-10-19T13:50:33;10.30;;;6.13;;
48006;SDS011;33771;48.180;11.400;2023-10-19T13:52:59;10.65;;;6.63;;
48006;SDS011;33771;48.180;11.400;2023-10-19T13:55:26;11.43;;;6.78;;
48006;SDS011;33771;48.180;11.400;2023-10-19T13:57:52;12.57;;;7.22;;
48006;SDS011;33771;48.180;11.400;2023-10-19T14:00:18;10.75;;;6.85;;
48006;SDS011;33771;48.180;11.400;2023-10-19T14:02:48;14.00;;;7.35;;
48006;SDS011;33771;48.180;11.400;2023-10-19T14:05:14;15.00;;;8.35;;
48006;SDS011;33771;48.180;11.400;2023-10-19T14:07:40;13.68;;;8.18;;
48006;SDS011;33771;48.180;11.400;2023-10-19T14:10:06;12.45;;;7.88;;
48006;SDS011;33771;48.180;11.400;2023-10-19T14:12:33;11.43;;;7.88;;
48006;SDS011;33771;48.180;11.400;2023-10-19T14:14:58;12.43;;;8.63;;
48006;SDS011;33771;48.180;11.400;2023-10-19T14:17:24;10.63;;;8.40;;
48006;SDS011;33771;48.180;11.400;2023-10-19T14:19:50;13.43;;;8.52;;
48006;SDS011;33771;48.180;11.400;2023-10-19T14:22:16;15.45;;;9.35;;
48006;SDS011;33771;48.180;11.400;2023-10-19T14:24:42;14.68;;;10.10;;
48006;SDS011;33771;48.180;11.400;2023-10-19T14:27:08;18.27;;;11.02;;
48006;SDS011;33771;48.180;11.400;2023-10-19T14:29:34;16.50;;;10.90;;
48006;SDS011;33771;48.180;11.400;2023-10-19T14:31:59;14.77;;;10.45;;
48006;SDS011;33771;48.180;11.400;2023-10-19T14:34:25;16.20;;;10.38;;
48006;SDS011;33771;48.180;11.400;2023-10-19T14:36:54;17.85;;;12.13;;
48006;SDS011;33771;48.180;11.400;2023-10-19T14:39:20;19.20;;;11.68;;
48006;SDS011;33771;48.180;11.400;2023-10-19T14:41:46;15.18;;;11.43;;
48006;SDS011;33771;48.180;11.400;2023-10-19T14:44:11;19.02;;;11.20;;
48006;SDS011;33771;48.180;11.400;2023-10-19T14:46:37;16.85;;;11.70;;
48006;SDS011;33771;48.180;11.400;2023-10-19T14:49:02;17.35;;;12.40;;
48006;SDS011;33771;48.180;11.400;2023-10-19T14:51:28;29.23;;;12.20;;
48006;SDS011;33771;48.180;11.400;2023-10-19T14:53:53;19.33;;;10.73;;
48006;SDS011;33771;48.180;11.400;2023-10-19T14:56:19;18.30;;;11.50;;